sensor_id;sensor_type;location;lat;lon;timestamp;P1;durP1;ratioP1;P2;durP2;ratioP2
3036;SDS011;1528;52.550;13.408;2023-05-07T00:01:39;17.47;;;16.17;;
3036;SDS011;1528;52.550;13.408;2023-05-07T00:04:25;16.83;;;15.60;;
3036;SDS011;1528;52.550;13.408;2023-05-07T00:07:11;16.93;;;15.80;;
3036;SDS011;1528;52.550;13.408;2023-05-07T00:09:59;17.30;;;16.10;;
3036;SDS011;1528;52.550;13.408;2023-05-07T00:12:44;17.00;;;15.80;;
3036;SDS011;1528;52.550;13.408;2023-05-07T00:15:29;16.03;;;14.93;;
3036;SDS011;1528;52.550;13.408;2023-05-07T00:18:15;15.53;;;14.23;;
3036;SDS011;1528;52.550;13.408;2023-05-07T00:21:02;16.10;;;14.80;;
3036;SDS011;1528;52.550;13.408;2023-05-07T00:23:48;16.53;;;15.30;;
3036;SDS011;1528;52.550;13.408;2023-05-07T00:26:35;16.27;;;14.97;;
3036;SDS011;1528;52.550;13.408;2023-05-07T00:29:20;16.17;;;14.73;;
3036;SDS011;1528;52.550;13.408;2023-05-07T00:32:06;15.63;;;14.43;;
3036;SDS011;1528;52.550;13.408;2023-05-07T00:34:52;15.07;;;13.90;;
3036;SDS011;1528;52.550;13.408;2023-05-07T00:37:38;15.67;;;14.60;;
3036;SDS011;1528;52.550;13.408;2023-05-07T00:40:23;15.50;;;14.40;;
3036;SDS011;1528;52.550;13.408;2023-05-07T00:43:11;16.77;;;15.33;;
3036;SDS011;1528;52.550;13.408;2023-05-07T00:45:56;15.80;;;14.50;;
3036;SDS011;1528;52.550;13.408;2023-05-07T00:48:42;14.97;;;13.87;;
3036;SDS011;1528;52.550;13.408;2023-05-07T00:51:27;16.53;;;15.37;;
3036;SDS011;1528;52.550;13.408;2023-05-07T00:54:14;15.50;;;14.40;;
3036;SDS011;1528;52.550;13.408;2023-05-07T00:57:01;16.03;;;14.83;;
3036;SDS011;1528;52.550;13.408;2023-05-07T00:59:49;16.37;;;15.17;;
3036;SDS011;1528;52.550;13.408;2023-05-07T01:02:36;15.47;;;14.47;;
3036;SDS011;1528;52.550;13.408;2023-05-07T01:05:22;16.20;;;15.10;;
3036;SDS011;1528;52.550;13.408;2023-05-07T01:08:08;14.90;;;13.90;;
3036;SDS011;1528;52.550;13.408;2023-05-07T01:10:54;16.73;;;15.50;;
3036;SDS011;1528;52.550;13.408;2023-05-07T01:13:41;16.50;;;15.17;;
3036;SDS011;1528;52.550;13.408;2023-05-07T01:16:28;17.13;;;15.93;;
3036;SDS011;1528;52.550;13.408;2023-05-07T01:19:14;16.47;;;15.27;;
3036;SDS011;1528;52.550;13.408;2023-05-07T01:22:05;16.20;;;15.00;;
3036;SDS011;1528;52.550;13.408;2023-05-07T01:24:55;15.73;;;14.73;;
3036;SDS011;1528;52.550;13.408;2023-05-07T01:27:41;16.30;;;15.07;;
3036;SDS011;1528;52.550;13.408;2023-05-07T01:30:26;16.03;;;14.73;;
3036;SDS011;1528;52.550;13.408;2023-05-07T01:33:13;16.50;;;15.40;;
3036;SDS011;1528;52.550;13.408;2023-05-07T01:36:04;15.83;;;14.83;;
3036;SDS011;1528;52.550;13.408;2023-05-07T01:38:52;16.20;;;15.10;;
3036;SDS011;1528;52.550;13.408;2023-05-07T01:41:39;16.47;;;15.27;;
3036;SDS011;1528;52.550;13.408;2023-05-07T01:44:25;14.20;;;13.23;;
3036;SDS011;1528;52.550;13.408;2023-05-07T01:47:11;16.90;;;15.80;;
3036;SDS011;1528;52.550;13.408;2023-05-07T01:49:58;14.93;;;13.93;;
3036;SDS011;1528;52.550;13.408;2023-05-07T01:52:44;15.30;;;14.13;;
3036;SDS011;1528;52.550;13.408;2023-05-07T01:55:29;15.67;;;14.57;;
3036;SDS011;1528;52.550;13.408;2023-05-07T01:58:16;15.50;;;14.40;;
3036;SDS011;1528;52.550;13.408;2023-05-07T02:01:02;15.53;;;14.47;;
3036;SDS011;1528;52.550;13.408;2023-05-07T02:03:47;15.10;;;14.00;;
3036;SDS011;1528;52.550;13.408;2023-05-07T02:06:33;15.27;;;14.17;;
3036;SDS011;1528;52.550;13.408;2023-05-07T02:09:20;13.63;;;12.53;;
3036;SDS011;1528;52.550;13.408;2023-05-07T02:12:05;14.47;;;13.53;;
3036;SDS011;1528;52.550;13.408;2023-05-07T02:14:53;17.67;;;16.17;;
3036;SDS011;1528;52.550;13.408;2023-05-07T02:17:39;16.37;;;15.20;;
3036;SDS011;1528;52.550;13.408;2023-05-07T02:20:43;18.73;;;17.43;;
3036;SDS011;1528;52.550;13.408;2023-05-07T02:23:29;18.20;;;17.03;;
3036;SDS011;1528;52.550;13.408;2023-05-07T02:26:15;16.40;;;15.17;;
3036;SDS011;1528;52.550;13.408;2023-05-07T02:29:00;16.40;;;15.00;;
3036;SDS011;1528;52.550;13.408;2023-05-07T02:31:47;17.30;;;15.97;;
3036;SDS011;1528;52.550;13.408;2023-05-07T02:34:34;19.60;;;18.00;;
3036;SDS011;1528;52.550;13.408;2023-05-07T02:37:20;18.40;;;17.00;;
3036;SDS011;1528;52.550;13.408;2023-05-07T02:40:06;17.93;;;16.53;;
3036;SDS011;1528;52.550;13.408;2023-05-07T02:42:53;16.17;;;15.17;;
3036;SDS011;1528;52.550;13.408;2023-05-07T02:45:38;17.70;;;16.50;;
3036;SDS011;1528;52.550;13.408;2023-05-07T02:48:26;16.27;;;15.17;;
3036;SDS011;1528;52.550;13.408;2023-05-07T02:51:11;16.90;;;15.37;;
3036;SDS011;1528;52.550;13.408;2023-05-07T02:53:57;15.00;;;13.90;;
3036;SDS011;1528;52.550;13.408;2023-05-07T02:56:42;15.30;;;14.27;;
3036;SDS011;1528;52.550;13.408;2023-05-07T02:59:28;14.70;;;13.60;;
3036;SDS011;1528;52.550;13.408;2023-05-07T03:02:13;13.77;;;12.87;;
3036;SDS011;1528;52.550;13.408;2023-05-07T03:05:00;15.07;;;13.93;;
3036;SDS011;1528;52.550;13.408;2023-05-07T03:07:47;15.57;;;14.47;;
3036;SDS011;1528;52.550;13.408;2023-05-07T03:10:33;15.30;;;14.30;;
3036;SDS011;1528;52.550;13.408;2023-05-07T03:13:18;15.07;;;14.07;;
3036;SDS011;1528;52.550;13.408;2023-05-07T03:16:04;14.00;;;13.00;;
3036;SDS011;1528;52.550;13.408;2023-05-07T03:18:50;14.60;;;13.50;;
3036;SDS011;1528;52.550;13.408;2023-05-07T03:21:37;14.40;;;13.30;;
3036;SDS011;1528;52.550;13.408;2023-05-07T03:24:23;13.60;;;12.70;;
3036;SDS011;1528;52.550;13.408;2023-05-07T03:27:09;14.53;;;13.50;;
3036;SDS011;1528;52.550;13.408;2023-05-07T03:29:54;13.13;;;12.20;;
3036;SDS011;1528;52.550;13.408;2023-05-07T03:32:40;14.43;;;13.50;;
3036;SDS011;1528;52.550;13.408;2023-05-07T03:35:25;13.40;;;12.40;;
3036;SDS011;1528;52.550;13.408;2023-05-07T03:38:12;12.93;;;12.03;;
3036;SDS011;1528;52.550;13.408;2023-05-07T03:40:58;14.80;;;13.60;;
3036;SDS011;1528;52.550;13.408;2023-05-07T03:43:43;14.20;;;13.20;;
3036;SDS011;1528;52.550;13.408;2023-05-07T03:46:29;12.67;;;11.77;;
3036;SDS011;1528;52.550;13.408;2023-05-07T03:49:16;13.17;;;12.17;;
3036;SDS011;1528;52.550;13.408;2023-05-07T03:52:02;13.77;;;12.77;;
3036;SDS011;1528;52.550;13.408;2023-05-07T03:54:49;12.17;;;11.27;;
3036;SDS011;1528;52.550;13.408;2023-05-07T03:57:35;12.73;;;11.60;;
3036;SDS011;1528;52.550;13.408;2023-05-07T04:00:20;13.03;;;12.00;;
3036;SDS011;1528;52.550;13.408;2023-05-07T04:03:06;13.60;;;12.50;;
3036;SDS011;1528;52.550;13.408;2023-05-07T04:05:52;12.67;;;11.87;;
3036;SDS011;1528;52.550;13.408;2023-05-07T04:08:38;13.20;;;12.20;;
3036;SDS011;1528;52.550;13.408;2023-05-07T04:11:25;13.17;;;12.10;;
3036;SDS011;1528;52.550;13.408;2023-05-07T04:14:11;12.77;;;11.50;;
3036;SDS011;1528;52.550;13.408;2023-05-07T04:16:56;12.73;;;11.93;;
3036;SDS011;1528;52.550;13.408;2023-05-07T04:19:42;12.20;;;11.30;;
3036;SDS011;1528;52.550;13.408;2023-05-07T04:22:29;12.20;;;11.30;;
3036;SDS011;1528;52.550;13.408;2023-05-07T04:25:15;12.53;;;11.60;;
3036;SDS011;1528;52.550;13.408;2023-05-07T04:28:02;11.53;;;10.73;;
3036;SDS011;1528;52.550;13.408;2023-05-07T04:30:48;12.17;;;11.17;;
3036;SDS011;1528;52.550;13.408;2023-05-07T04:33:34;12.50;;;11.70;;
3036;SDS011;1528;52.550;13.408;2023-05-07T04:36:19;12.60;;;11.70;;
3036;SDS011;1528;52.550;13.408;2023-05-07T04:39:05;12.10;;;11.30;;
3036;SDS011;1528;52.550;13.408;2023-05-07T04:41:50;11.90;;;11.10;;
3036;SDS011;1528;52.550;13.408;2023-05-07T04:44:37;12.40;;;11.50;;
3036;SDS011;1528;52.550;13.408;2023-05-07T04:47:23;11.90;;;11.20;;
3036;SDS011;1528;52.550;13.408;2023-05-07T04:50:09;12.80;;;11.90;;
3036;SDS011;1528;52.550;13.408;2023-05-07T04:52:55;13.93;;;12.73;;
3036;SDS011;1528;52.550;13.408;2023-05-07T04:55:40;11.43;;;10.43;;
3036;SDS011;1528;52.550;13.408;2023-05-07T04:58:26;11.50;;;10.70;;
3036;SDS011;1528;52.550;13.408;2023-05-07T05:01:16;10.70;;;10.00;;
3036;SDS011;1528;52.550;13.408;2023-05-07T05:04:01;12.17;;;11.37;;
3036;SDS011;1528;52.550;13.408;2023-05-07T05:06:47;12.13;;;11.13;;
3036;SDS011;1528;52.550;13.408;2023-05-07T05:09:33;11.60;;;10.70;;
3036;SDS011;1528;52.550;13.408;2023-05-07T05:12:18;11.47;;;10.77;;
3036;SDS011;1528;52.550;13.408;2023-05-07T05:15:05;10.83;;;10.13;;
3036;SDS011;1528;52.550;13.408;2023-05-07T05:17:52;10.93;;;10.27;;
3036;SDS011;1528;52.550;13.408;2023-05-07T05:20:38;11.47;;;10.77;;
3036;SDS011;1528;52.550;13.408;2023-05-07T05:23:24;10.77;;;9.97;;
3036;SDS011;1528;52.550;13.408;2023-05-07T05:26:09;10.47;;;9.87;;
3036;SDS011;1528;52.550;13.408;2023-05-07T05:28:55;11.17;;;10.47;;
3036;SDS011;1528;52.550;13.408;2023-05-07T05:31:41;12.13;;;11.37;;
3036;SDS011;1528;52.550;13.408;2023-05-07T05:34:28;11.23;;;10.43;;
3036;SDS011;1528;52.550;13.408;2023-05-07T05:37:13;11.30;;;10.50;;
3036;SDS011;1528;52.550;13.408;2023-05-07T05:39:59;10.80;;;10.03;;
3036;SDS011;1528;52.550;13.408;2023-05-07T05:42:45;12.30;;;11.40;;
3036;SDS011;1528;52.550;13.408;2023-05-07T05:45:30;11.60;;;10.70;;
3036;SDS011;1528;52.550;13.408;2023-05-07T05:48:16;11.73;;;11.00;;
3036;SDS011;1528;52.550;13.408;2023-05-07T05:51:03;11.80;;;10.80;;
3036;SDS011;1528;52.550;13.408;2023-05-07T05:53:49;10.33;;;9.60;;
3036;SDS011;1528;52.550;13.408;2023-05-07T05:56:34;11.77;;;10.97;;
3036;SDS011;1528;52.550;13.408;2023-05-07T05:59:21;11.67;;;10.87;;
3036;SDS011;1528;52.550;13.408;2023-05-07T06:02:06;12.23;;;11.33;;
3036;SDS011;1528;52.550;13.408;2023-05-07T06:04:52;12.60;;;11.80;;
3036;SDS011;1528;52.550;13.408;2023-05-07T06:07:39;11.53;;;10.53;;
3036;SDS011;1528;52.550;13.408;2023-05-07T06:10:24;12.10;;;11.37;;
3036;SDS011;1528;52.550;13.408;2023-05-07T06:13:10;12.37;;;11.57;;
3036;SDS011;1528;52.550;13.408;2023-05-07T06:15:56;10.73;;;9.93;;
3036;SDS011;1528;52.550;13.408;2023-05-07T06:18:42;11.63;;;10.93;;
3036;SDS011;1528;52.550;13.408;2023-05-07T06:21:28;12.07;;;11.27;;
3036;SDS011;1528;52.550;13.408;2023-05-07T06:24:15;11.90;;;11.10;;
3036;SDS011;1528;52.550;13.408;2023-05-07T06:27:01;9.80;;;9.10;;
3036;SDS011;1528;52.550;13.408;2023-05-07T06:29:47;11.13;;;10.43;;
3036;SDS011;1528;52.550;13.408;2023-05-07T06:32:33;11.03;;;10.13;;
3036;SDS011;1528;52.550;13.408;2023-05-07T06:35:18;11.80;;;11.10;;
3036;SDS011;1528;52.550;13.408;2023-05-07T06:38:04;11.07;;;10.37;;
3036;SDS011;1528;52.550;13.408;2023-05-07T06:40:51;11.43;;;10.63;;
3036;SDS011;1528;52.550;13.408;2023-05-07T06:43:38;11.30;;;10.30;;
3036;SDS011;1528;52.550;13.408;2023-05-07T06:46:24;10.90;;;10.20;;
3036;SDS011;1528;52.550;13.408;2023-05-07T06:49:10;10.70;;;10.00;;
3036;SDS011;1528;52.550;13.408;2023-05-07T06:51:55;11.03;;;10.23;;
3036;SDS011;1528;52.550;13.408;2023-05-07T06:54:41;8.77;;;8.07;;
3036;SDS011;1528;52.550;13.408;2023-05-07T06:57:28;9.37;;;8.77;;
3036;SDS011;1528;52.550;13.408;2023-05-07T07:00:13;9.77;;;9.00;;
3036;SDS011;1528;52.550;13.408;2023-05-07T07:02:59;13.40;;;9.50;;
3036;SDS011;1528;52.550;13.408;2023-05-07T07:05:45;9.83;;;9.23;;
3036;SDS011;1528;52.550;13.408;2023-05-07T07:08:31;10.37;;;9.67;;
3036;SDS011;1528;52.550;13.408;2023-05-07T07:11:33;10.10;;;9.40;;
3036;SDS011;1528;52.550;13.408;2023-05-07T07:14:20;9.87;;;9.17;;
3036;SDS011;1528;52.550;13.408;2023-05-07T07:17:06;9.80;;;9.00;;
3036;SDS011;1528;52.550;13.408;2023-05-07T07:19:51;9.27;;;8.77;;
3036;SDS011;1528;52.550;13.408;2023-05-07T07:22:37;8.97;;;8.20;;
3036;SDS011;1528;52.550;13.408;2023-05-07T07:25:23;8.50;;;7.90;;
3036;SDS011;1528;52.550;13.408;2023-05-07T07:28:08;8.23;;;7.63;;
3036;SDS011;1528;52.550;13.408;2023-05-07T07:30:56;8.43;;;7.90;;
3036;SDS011;1528;52.550;13.408;2023-05-07T07:33:41;8.90;;;8.30;;
3036;SDS011;1528;52.550;13.408;2023-05-07T07:36:27;7.97;;;7.47;;
3036;SDS011;1528;52.550;13.408;2023-05-07T07:39:14;8.60;;;8.00;;
3036;SDS011;1528;52.550;13.408;2023-05-07T07:41:59;8.00;;;7.60;;
3036;SDS011;1528;52.550;13.408;2023-05-07T07:44:45;8.27;;;7.63;;
3036;SDS011;1528;52.550;13.408;2023-05-07T07:47:32;8.33;;;7.80;;
3036;SDS011;1528;52.550;13.408;2023-05-07T07:50:17;8.30;;;7.80;;
3036;SDS011;1528;52.550;13.408;2023-05-07T07:53:03;8.07;;;7.47;;
3036;SDS011;1528;52.550;13.408;2023-05-07T07:55:48;7.20;;;6.77;;
3036;SDS011;1528;52.550;13.408;2023-05-07T07:58:34;7.87;;;7.20;;
3036;SDS011;1528;52.550;13.408;2023-05-07T08:01:21;7.60;;;7.10;;
3036;SDS011;1528;52.550;13.408;2023-05-07T08:04:08;7.97;;;7.47;;
3036;SDS011;1528;52.550;13.408;2023-05-07T08:06:54;7.30;;;6.90;;
3036;SDS011;1528;52.550;13.408;2023-05-07T08:09:40;8.40;;;7.90;;
3036;SDS011;1528;52.550;13.408;2023-05-07T08:12:25;7.37;;;6.67;;
3036;SDS011;1528;52.550;13.408;2023-05-07T08:15:11;7.87;;;7.40;;
3036;SDS011;1528;52.550;13.408;2023-05-07T08:17:57;7.70;;;7.10;;
3036;SDS011;1528;52.550;13.408;2023-05-07T08:20:45;6.83;;;6.33;;
3036;SDS011;1528;52.550;13.408;2023-05-07T08:23:31;7.83;;;7.13;;
3036;SDS011;1528;52.550;13.408;2023-05-07T08:26:18;6.63;;;6.23;;
3036;SDS011;1528;52.550;13.408;2023-05-07T08:29:03;7.60;;;7.20;;
3036;SDS011;1528;52.550;13.408;2023-05-07T08:31:49;7.27;;;6.87;;
3036;SDS011;1528;52.550;13.408;2023-05-07T08:34:35;7.30;;;6.70;;
3036;SDS011;1528;52.550;13.408;2023-05-07T08:37:22;6.57;;;5.97;;
3036;SDS011;1528;52.550;13.408;2023-05-07T08:40:08;6.93;;;6.53;;
3036;SDS011;1528;52.550;13.408;2023-05-07T08:42:54;6.53;;;6.13;;
3036;SDS011;1528;52.550;13.408;2023-05-07T08:45:41;6.60;;;6.20;;
3036;SDS011;1528;52.550;13.408;2023-05-07T08:48:27;6.03;;;5.73;;
3036;SDS011;1528;52.550;13.408;2023-05-07T08:51:16;6.23;;;5.83;;
3036;SDS011;1528;52.550;13.408;2023-05-07T08:54:04;6.50;;;6.20;;
3036;SDS011;1528;52.550;13.408;2023-05-07T08:56:51;7.13;;;6.53;;
3036;SDS011;1528;52.550;13.408;2023-05-07T08:59:36;7.10;;;6.60;;
3036;SDS011;1528;52.550;13.408;2023-05-07T09:02:22;7.20;;;6.70;;
3036;SDS011;1528;52.550;13.408;2023-05-07T09:05:08;7.07;;;6.57;;
3036;SDS011;1528;52.550;13.408;2023-05-07T09:07:53;6.83;;;6.43;;
3036;SDS011;1528;52.550;13.408;2023-05-07T09:10:41;7.43;;;7.03;;
3036;SDS011;1528;52.550;13.408;2023-05-07T09:13:27;6.67;;;6.17;;
3036;SDS011;1528;52.550;13.408;2023-05-07T09:16:13;7.43;;;6.93;;
3036;SDS011;1528;52.550;13.408;2023-05-07T09:19:00;5.93;;;5.60;;
3036;SDS011;1528;52.550;13.408;2023-05-07T09:21:45;7.30;;;6.80;;
3036;SDS011;1528;52.550;13.408;2023-05-07T09:24:31;8.10;;;7.50;;
3036;SDS011;1528;52.550;13.408;2023-05-07T09:27:21;6.10;;;5.80;;
3036;SDS011;1528;52.550;13.408;2023-05-07T09:30:06;6.20;;;5.80;;
3036;SDS011;1528;52.550;13.408;2023-05-07T09:32:53;6.20;;;5.80;;
3036;SDS011;1528;52.550;13.408;2023-05-07T09:35:39;6.23;;;5.83;;
3036;SDS011;1528;52.550;13.408;2023-05-07T09:38:24;6.13;;;5.70;;
3036;SDS011;1528;52.550;13.408;2023-05-07T09:41:12;6.27;;;5.97;;
3036;SDS011;1528;52.550;13.408;2023-05-07T09:43:59;7.20;;;6.60;;
3036;SDS011;1528;52.550;13.408;2023-05-07T09:46:45;7.50;;;7.17;;
3036;SDS011;1528;52.550;13.408;2023-05-07T09:49:39;5.70;;;5.40;;
3036;SDS011;1528;52.550;13.408;2023-05-07T09:52:25;6.07;;;5.77;;
3036;SDS011;1528;52.550;13.408;2023-05-07T09:55:16;6.30;;;5.90;;
3036;SDS011;1528;52.550;13.408;2023-05-07T09:58:02;5.70;;;5.40;;
3036;SDS011;1528;52.550;13.408;2023-05-07T10:00:52;6.33;;;5.90;;
3036;SDS011;1528;52.550;13.408;2023-05-07T10:03:39;6.13;;;5.83;;
3036;SDS011;1528;52.550;13.408;2023-05-07T10:06:26;5.40;;;5.10;;
3036;SDS011;1528;52.550;13.408;2023-05-07T10:09:12;6.50;;;6.20;;
3036;SDS011;1528;52.550;13.408;2023-05-07T10:12:00;5.47;;;5.27;;
3036;SDS011;1528;52.550;13.408;2023-05-07T10:14:46;6.20;;;5.90;;
3036;SDS011;1528;52.550;13.408;2023-05-07T10:17:35;6.60;;;6.20;;
3036;SDS011;1528;52.550;13.408;2023-05-07T10:20:22;5.80;;;5.40;;
3036;SDS011;1528;52.550;13.408;2023-05-07T10:23:08;6.43;;;5.87;;
3036;SDS011;1528;52.550;13.408;2023-05-07T10:25:59;5.57;;;5.10;;
3036;SDS011;1528;52.550;13.408;2023-05-07T10:28:49;4.93;;;4.53;;
3036;SDS011;1528;52.550;13.408;2023-05-07T10:31:49;5.50;;;5.20;;
3036;SDS011;1528;52.550;13.408;2023-05-07T10:34:45;5.30;;;5.00;;
3036;SDS011;1528;52.550;13.408;2023-05-07T10:37:33;5.10;;;4.80;;
3036;SDS011;1528;52.550;13.408;2023-05-07T10:40:19;4.90;;;4.60;;
3036;SDS011;1528;52.550;13.408;2023-05-07T10:43:05;5.37;;;4.93;;
3036;SDS011;1528;52.550;13.408;2023-05-07T10:49:10;5.50;;;5.20;;
3036;SDS011;1528;52.550;13.408;2023-05-07T10:52:14;5.57;;;5.17;;
3036;SDS011;1528;52.550;13.408;2023-05-07T10:58:22;5.60;;;5.30;;
3036;SDS011;1528;52.550;13.408;2023-05-07T11:01:09;6.03;;;5.73;;
3036;SDS011;1528;52.550;13.408;2023-05-07T11:10:15;5.87;;;5.37;;
3036;SDS011;1528;52.550;13.408;2023-05-07T11:13:00;6.17;;;5.77;;
3036;SDS011;1528;52.550;13.408;2023-05-07T11:15:46;5.97;;;5.57;;
3036;SDS011;1528;52.550;13.408;2023-05-07T11:18:46;5.63;;;5.37;;
3036;SDS011;1528;52.550;13.408;2023-05-07T11:21:33;5.10;;;4.80;;
3036;SDS011;1528;52.550;13.408;2023-05-07T11:24:21;6.60;;;4.73;;
3036;SDS011;1528;52.550;13.408;2023-05-07T11:27:07;7.10;;;6.60;;
3036;SDS011;1528;52.550;13.408;2023-05-07T11:29:53;5.87;;;5.57;;
3036;SDS011;1528;52.550;13.408;2023-05-07T11:32:39;6.00;;;5.70;;
3036;SDS011;1528;52.550;13.408;2023-05-07T11:35:24;5.10;;;4.80;;
3036;SDS011;1528;52.550;13.408;2023-05-07T11:38:11;7.50;;;6.90;;
3036;SDS011;1528;52.550;13.408;2023-05-07T11:40:59;10.30;;;9.87;;
3036;SDS011;1528;52.550;13.408;2023-05-07T11:43:56;9.70;;;9.40;;
3036;SDS011;1528;52.550;13.408;2023-05-07T11:46:43;11.67;;;10.60;;
3036;SDS011;1528;52.550;13.408;2023-05-07T11:49:29;9.20;;;8.90;;
3036;SDS011;1528;52.550;13.408;2023-05-07T11:52:15;11.47;;;10.97;;
3036;SDS011;1528;52.550;13.408;2023-05-07T11:55:09;12.43;;;12.03;;
3036;SDS011;1528;52.550;13.408;2023-05-07T11:57:56;10.17;;;9.77;;
3036;SDS011;1528;52.550;13.408;2023-05-07T12:00:47;10.37;;;9.83;;
3036;SDS011;1528;52.550;13.408;2023-05-07T12:03:34;7.23;;;6.83;;
3036;SDS011;1528;52.550;13.408;2023-05-07T12:06:21;7.60;;;7.20;;
3036;SDS011;1528;52.550;13.408;2023-05-07T12:09:10;6.30;;;6.00;;
3036;SDS011;1528;52.550;13.408;2023-05-07T12:11:55;5.30;;;5.10;;
3036;SDS011;1528;52.550;13.408;2023-05-07T12:14:43;6.23;;;5.93;;
3036;SDS011;1528;52.550;13.408;2023-05-07T12:17:29;7.00;;;6.43;;
3036;SDS011;1528;52.550;13.408;2023-05-07T12:20:15;7.20;;;6.90;;
3036;SDS011;1528;52.550;13.408;2023-05-07T12:23:02;10.17;;;9.77;;
3036;SDS011;1528;52.550;13.408;2023-05-07T12:25:48;10.13;;;9.73;;
3036;SDS011;1528;52.550;13.408;2023-05-07T12:28:37;9.70;;;9.23;;
3036;SDS011;1528;52.550;13.408;2023-05-07T12:31:26;11.20;;;10.80;;
3036;SDS011;1528;52.550;13.408;2023-05-07T12:34:12;9.00;;;8.50;;
3036;SDS011;1528;52.550;13.408;2023-05-07T12:37:01;8.33;;;8.03;;
3036;SDS011;1528;52.550;13.408;2023-05-07T12:39:49;9.63;;;9.33;;
3036;SDS011;1528;52.550;13.408;2023-05-07T12:42:52;7.00;;;6.80;;
3036;SDS011;1528;52.550;13.408;2023-05-07T12:45:39;7.82;;;7.53;;
3036;SDS011;1528;52.550;13.408;2023-05-07T12:48:28;9.13;;;8.83;;
3036;SDS011;1528;52.550;13.408;2023-05-07T12:51:13;7.27;;;6.90;;
3036;SDS011;1528;52.550;13.408;2023-05-07T12:54:00;10.60;;;10.27;;
3036;SDS011;1528;52.550;13.408;2023-05-07T12:56:46;9.73;;;9.20;;
3036;SDS011;1528;52.550;13.408;2023-05-07T12:59:34;8.43;;;8.13;;
3036;SDS011;1528;52.550;13.408;2023-05-07T13:02:22;7.83;;;7.53;;
3036;SDS011;1528;52.550;13.408;2023-05-07T13:05:21;7.20;;;6.80;;
3036;SDS011;1528;52.550;13.408;2023-05-07T13:08:07;7.07;;;6.77;;
3036;SDS011;1528;52.550;13.408;2023-05-07T13:10:53;5.43;;;5.23;;
3036;SDS011;1528;52.550;13.408;2023-05-07T13:13:41;5.30;;;5.00;;
3036;SDS011;1528;52.550;13.408;2023-05-07T13:16:27;6.20;;;5.87;;
3036;SDS011;1528;52.550;13.408;2023-05-07T13:19:12;4.90;;;4.67;;
3036;SDS011;1528;52.550;13.408;2023-05-07T13:21:59;6.10;;;5.80;;
3036;SDS011;1528;52.550;13.408;2023-05-07T13:24:48;5.30;;;5.10;;
3036;SDS011;1528;52.550;13.408;2023-05-07T13:27:34;5.30;;;4.90;;
3036;SDS011;1528;52.550;13.408;2023-05-07T13:30:20;4.70;;;4.40;;
3036;SDS011;1528;52.550;13.408;2023-05-07T13:33:05;4.47;;;4.17;;
3036;SDS011;1528;52.550;13.408;2023-05-07T13:35:51;5.87;;;5.57;;
3036;SDS011;1528;52.550;13.408;2023-05-07T13:38:39;6.63;;;6.23;;
3036;SDS011;1528;52.550;13.408;2023-05-07T13:41:24;9.43;;;9.07;;
3036;SDS011;1528;52.550;13.408;2023-05-07T13:44:10;8.87;;;8.50;;
3036;SDS011;1528;52.550;13.408;2023-05-07T13:46:55;5.90;;;5.70;;
3036;SDS011;1528;52.550;13.408;2023-05-07T13:49:41;5.57;;;5.27;;
3036;SDS011;1528;52.550;13.408;2023-05-07T13:52:29;5.23;;;5.03;;
3036;SDS011;1528;52.550;13.408;2023-05-07T13:55:16;6.90;;;6.50;;
3036;SDS011;1528;52.550;13.408;2023-05-07T13:58:02;7.87;;;7.57;;
3036;SDS011;1528;52.550;13.408;2023-05-07T14:00:48;7.60;;;7.33;;
3036;SDS011;1528;52.550;13.408;2023-05-07T14:03:37;9.03;;;8.53;;
3036;SDS011;1528;52.550;13.408;2023-05-07T14:06:23;7.83;;;7.53;;
3036;SDS011;1528;52.550;13.408;2023-05-07T14:09:09;6.50;;;6.10;;
3036;SDS011;1528;52.550;13.408;2023-05-07T14:11:58;7.40;;;7.10;;
3036;SDS011;1528;52.550;13.408;2023-05-07T14:14:45;7.70;;;7.40;;
3036;SDS011;1528;52.550;13.408;2023-05-07T14:17:30;7.30;;;7.00;;
3036;SDS011;1528;52.550;13.408;2023-05-07T14:20:16;7.87;;;7.47;;
3036;SDS011;1528;52.550;13.408;2023-05-07T14:23:02;6.90;;;6.60;;
3036;SDS011;1528;52.550;13.408;2023-05-07T14:25:48;7.20;;;6.80;;
3036;SDS011;1528;52.550;13.408;2023-05-07T14:28:40;11.23;;;10.93;;
3036;SDS011;1528;52.550;13.408;2023-05-07T14:31:29;7.17;;;6.87;;
3036;SDS011;1528;52.550;13.408;2023-05-07T14:34:16;9.00;;;8.70;;
3036;SDS011;1528;52.550;13.408;2023-05-07T14:37:02;9.63;;;9.23;;
3036;SDS011;1528;52.550;13.408;2023-05-07T14:39:50;7.23;;;7.03;;
3036;SDS011;1528;52.550;13.408;2023-05-07T14:42:35;8.70;;;8.30;;
3036;SDS011;1528;52.550;13.408;2023-05-07T14:45:23;9.40;;;9.10;;
3036;SDS011;1528;52.550;13.408;2023-05-07T14:48:09;8.10;;;7.80;;
3036;SDS011;1528;52.550;13.408;2023-05-07T14:50:58;7.17;;;6.87;;
3036;SDS011;1528;52.550;13.408;2023-05-07T14:53:44;6.07;;;5.67;;
3036;SDS011;1528;52.550;13.408;2023-05-07T14:56:29;7.00;;;6.70;;
3036;SDS011;1528;52.550;13.408;2023-05-07T14:59:15;5.67;;;5.37;;
3036;SDS011;1528;52.550;13.408;2023-05-07T15:02:05;4.87;;;4.57;;
3036;SDS011;1528;52.550;13.408;2023-05-07T15:04:51;4.83;;;4.53;;
3036;SDS011;1528;52.550;13.408;2023-05-07T15:07:37;4.70;;;4.50;;
3036;SDS011;1528;52.550;13.408;2023-05-07T15:10:23;4.30;;;4.00;;
3036;SDS011;1528;52.550;13.408;2023-05-07T15:13:09;4.90;;;4.60;;
3036;SDS011;1528;52.550;13.408;2023-05-07T15:15:55;5.00;;;4.37;;
3036;SDS011;1528;52.550;13.408;2023-05-07T15:18:43;4.70;;;4.30;;
3036;SDS011;1528;52.550;13.408;2023-05-07T15:21:29;4.73;;;4.53;;
3036;SDS011;1528;52.550;13.408;2023-05-07T15:24:17;4.20;;;3.90;;
3036;SDS011;1528;52.550;13.408;2023-05-07T15:27:03;4.30;;;4.03;;
3036;SDS011;1528;52.550;13.408;2023-05-07T15:29:49;4.20;;;4.00;;
3036;SDS011;1528;52.550;13.408;2023-05-07T15:32:34;4.20;;;3.90;;
3036;SDS011;1528;52.550;13.408;2023-05-07T15:35:22;3.93;;;3.73;;
3036;SDS011;1528;52.550;13.408;2023-05-07T15:38:09;3.93;;;3.60;;
3036;SDS011;1528;52.550;13.408;2023-05-07T15:41:00;4.03;;;3.83;;
3036;SDS011;1528;52.550;13.408;2023-05-07T15:43:46;6.63;;;4.77;;
3036;SDS011;1528;52.550;13.408;2023-05-07T15:46:33;4.50;;;4.30;;
3036;SDS011;1528;52.550;13.408;2023-05-07T15:49:22;3.93;;;3.63;;
3036;SDS011;1528;52.550;13.408;2023-05-07T15:52:09;4.07;;;3.87;;
3036;SDS011;1528;52.550;13.408;2023-05-07T15:54:57;4.27;;;3.97;;
3036;SDS011;1528;52.550;13.408;2023-05-07T15:57:47;3.83;;;3.63;;
3036;SDS011;1528;52.550;13.408;2023-05-07T16:00:32;3.60;;;3.10;;
3036;SDS011;1528;52.550;13.408;2023-05-07T16:03:18;4.03;;;3.80;;
3036;SDS011;1528;52.550;13.408;2023-05-07T16:06:05;5.43;;;4.03;;
3036;SDS011;1528;52.550;13.408;2023-05-07T16:08:52;4.30;;;4.00;;
3036;SDS011;1528;52.550;13.408;2023-05-07T16:11:37;4.97;;;4.60;;
3036;SDS011;1528;52.550;13.408;2023-05-07T16:14:23;3.67;;;3.37;;
3036;SDS011;1528;52.550;13.408;2023-05-07T16:17:09;4.60;;;4.30;;
3036;SDS011;1528;52.550;13.408;2023-05-07T16:19:54;6.03;;;5.63;;
3036;SDS011;1528;52.550;13.408;2023-05-07T16:22:41;5.40;;;5.00;;
3036;SDS011;1528;52.550;13.408;2023-05-07T16:25:28;5.10;;;4.70;;
3036;SDS011;1528;52.550;13.408;2023-05-07T16:28:16;4.10;;;3.73;;
3036;SDS011;1528;52.550;13.408;2023-05-07T16:31:02;3.83;;;3.53;;
3036;SDS011;1528;52.550;13.408;2023-05-07T16:33:47;4.27;;;3.87;;
3036;SDS011;1528;52.550;13.408;2023-05-07T16:36:33;3.57;;;3.37;;
3036;SDS011;1528;52.550;13.408;2023-05-07T16:39:19;3.43;;;3.13;;
3036;SDS011;1528;52.550;13.408;2023-05-07T16:42:06;3.60;;;3.40;;
3036;SDS011;1528;52.550;13.408;2023-05-07T16:44:52;4.83;;;4.53;;
3036;SDS011;1528;52.550;13.408;2023-05-07T16:47:38;4.70;;;4.40;;
3036;SDS011;1528;52.550;13.408;2023-05-07T16:50:24;3.83;;;3.50;;
3036;SDS011;1528;52.550;13.408;2023-05-07T16:53:10;3.50;;;3.30;;
3036;SDS011;1528;52.550;13.408;2023-05-07T16:55:56;4.00;;;3.70;;
3036;SDS011;1528;52.550;13.408;2023-05-07T16:58:43;4.00;;;3.70;;
3036;SDS011;1528;52.550;13.408;2023-05-07T17:01:28;8.57;;;4.17;;